sensor_id;sensor_type;location;lat;lon;timestamp;temperature;humidity
25112;DHT22;13092;51.996;4.458;2022-12-08T00:01:46;6.00;99.90
25112;DHT22;13092;51.996;4.458;2022-12-08T00:04:14;6.00;99.90
25112;DHT22;13092;51.996;4.458;2022-12-08T00:06:44;6.00;99.90
25112;DHT22;13092;51.996;4.458;2022-12-08T00:09:32;6.00;99.90
25112;DHT22;13092;51.996;4.458;2022-12-08T00:12:07;6.00;99.90
25112;DHT22;13092;51.996;4.458;2022-12-08T00:14:37;6.00;99.90
25112;DHT22;13092;51.996;4.458;2022-12-08T00:17:07;6.00;99.90
25112;DHT22;13092;51.996;4.458;2022-12-08T00:19:35;6.00;99.90
25112;DHT22;13092;51.996;4.458;2022-12-08T00:22:06;6.00;99.90
25112;DHT22;13092;51.996;4.458;2022-12-08T00:24:36;6.00;99.90
25112;DHT22;13092;51.996;4.458;2022-12-08T00:27:05;6.00;99.90
25112;DHT22;13092;51.996;4.458;2022-12-08T00:29:34;6.10;99.90
25112;DHT22;13092;51.996;4.458;2022-12-08T00:32:03;6.00;99.90
25112;DHT22;13092;51.996;4.458;2022-12-08T00:34:32;6.00;99.90
25112;DHT22;13092;51.996;4.458;2022-12-08T00:37:00;6.00;99.90
25112;DHT22;13092;51.996;4.458;2022-12-08T00:39:30;6.00;99.90
25112;DHT22;13092;51.996;4.458;2022-12-08T00:41:58;6.00;99.90
25112;DHT22;13092;51.996;4.458;2022-12-08T00:44:43;5.90;99.90
25112;DHT22;13092;51.996;4.458;2022-12-08T00:47:12;5.90;99.90
25112;DHT22;13092;51.996;4.458;2022-12-08T00:49:45;5.90;99.90
25112;DHT22;13092;51.996;4.458;2022-12-08T00:52:13;6.10;99.90
25112;DHT22;13092;51.996;4.458;2022-12-08T00:54:43;5.90;99.90
25112;DHT22;13092;51.996;4.458;2022-12-08T00:57:11;6.10;99.90
25112;DHT22;13092;51.996;4.458;2022-12-08T00:59:39;6.00;99.90
25112;DHT22;13092;51.996;4.458;2022-12-08T01:02:07;6.00;99.90
25112;DHT22;13092;51.996;4.458;2022-12-08T01:04:35;6.00;99.90
25112;DHT22;13092;51.996;4.458;2022-12-08T01:07:03;6.00;99.90
25112;DHT22;13092;51.996;4.458;2022-12-08T01:09:32;6.00;99.90
25112;DHT22;13092;51.996;4.458;2022-12-08T01:12:02;6.00;99.90
25112;DHT22;13092;51.996;4.458;2022-12-08T01:14:30;5.90;99.90
25112;DHT22;13092;51.996;4.458;2022-12-08T01:16:58;5.90;99.90
25112;DHT22;13092;51.996;4.458;2022-12-08T01:19:26;5.90;99.90
25112;DHT22;13092;51.996;4.458;2022-12-08T01:21:54;5.90;99.90
25112;DHT22;13092;51.996;4.458;2022-12-08T01:24:22;5.90;99.90
25112;DHT22;13092;51.996;4.458;2022-12-08T01:26:50;6.00;99.90
25112;DHT22;13092;51.996;4.458;2022-12-08T01:29:20;6.00;99.90
25112;DHT22;13092;51.996;4.458;2022-12-08T01:31:48;6.10;99.90
25112;DHT22;13092;51.996;4.458;2022-12-08T01:34:16;6.10;99.90
25112;DHT22;13092;51.996;4.458;2022-12-08T01:36:44;6.40;99.90
25112;DHT22;13092;51.996;4.458;2022-12-08T01:39:14;6.20;99.90
25112;DHT22;13092;51.996;4.458;2022-12-08T01:41:44;6.20;99.90
25112;DHT22;13092;51.996;4.458;2022-12-08T01:47:21;6.20;99.90
25112;DHT22;13092;51.996;4.458;2022-12-08T01:49:49;6.10;99.90
25112;DHT22;13092;51.996;4.458;2022-12-08T01:52:23;6.10;99.90
25112;DHT22;13092;51.996;4.458;2022-12-08T01:54:54;6.10;99.90
25112;DHT22;13092;51.996;4.458;2022-12-08T01:57:27;6.10;99.90
25112;DHT22;13092;51.996;4.458;2022-12-08T02:00:00;6.10;99.90
25112;DHT22;13092;51.996;4.458;2022-12-08T02:02:38;6.10;99.90
25112;DHT22;13092;51.996;4.458;2022-12-08T02:05:09;6.10;99.90
25112;DHT22;13092;51.996;4.458;2022-12-08T02:07:37;6.10;99.90
25112;DHT22;13092;51.996;4.458;2022-12-08T02:10:07;6.00;99.90
25112;DHT22;13092;51.996;4.458;2022-12-08T02:12:35;6.00;99.90
25112;DHT22;13092;51.996;4.458;2022-12-08T02:15:04;5.90;99.90
25112;DHT22;13092;51.996;4.458;2022-12-08T02:17:45;5.80;99.90
25112;DHT22;13092;51.996;4.458;2022-12-08T02:20:25;5.70;99.90
25112;DHT22;13092;51.996;4.458;2022-12-08T02:23:03;5.70;99.90
25112;DHT22;13092;51.996;4.458;2022-12-08T02:25:42;5.70;99.90
25112;DHT22;13092;51.996;4.458;2022-12-08T02:28:34;5.70;99.90
25112;DHT22;13092;51.996;4.458;2022-12-08T02:31:10;5.80;99.90
25112;DHT22;13092;51.996;4.458;2022-12-08T02:34:03;5.90;99.90
25112;DHT22;13092;51.996;4.458;2022-12-08T02:36:37;5.80;99.90
25112;DHT22;13092;51.996;4.458;2022-12-08T02:39:13;5.80;99.90
25112;DHT22;13092;51.996;4.458;2022-12-08T02:41:48;5.90;99.90
25112;DHT22;13092;51.996;4.458;2022-12-08T02:44:23;6.00;99.90
25112;DHT22;13092;51.996;4.458;2022-12-08T02:46:54;6.00;99.90
25112;DHT22;13092;51.996;4.458;2022-12-08T02:49:28;6.00;99.90
25112;DHT22;13092;51.996;4.458;2022-12-08T02:52:07;6.00;99.90
25112;DHT22;13092;51.996;4.458;2022-12-08T02:54:35;6.10;99.90
25112;DHT22;13092;51.996;4.458;2022-12-08T02:57:17;6.10;99.90
25112;DHT22;13092;51.996;4.458;2022-12-08T03:00:00;6.20;99.90
25112;DHT22;13092;51.996;4.458;2022-12-08T03:02:43;6.20;99.90
25112;DHT22;13092;51.996;4.458;2022-12-08T03:05:26;6.10;99.90
25112;DHT22;13092;51.996;4.458;2022-12-08T03:08:04;6.10;99.90
25112;DHT22;13092;51.996;4.458;2022-12-08T03:10:41;6.10;99.90
25112;DHT22;13092;51.996;4.458;2022-12-08T03:13:12;6.00;99.90
25112;DHT22;13092;51.996;4.458;2022-12-08T03:15:42;6.00;99.90
25112;DHT22;13092;51.996;4.458;2022-12-08T03:18:14;6.00;99.90
25112;DHT22;13092;51.996;4.458;2022-12-08T03:20:46;6.00;99.90
25112;DHT22;13092;51.996;4.458;2022-12-08T03:23:16;6.10;99.90
25112;DHT22;13092;51.996;4.458;2022-12-08T03:25:50;6.10;99.90
25112;DHT22;13092;51.996;4.458;2022-12-08T03:28:21;6.10;99.90
25112;DHT22;13092;51.996;4.458;2022-12-08T03:30:51;6.20;99.90
25112;DHT22;13092;51.996;4.458;2022-12-08T03:33:25;6.20;99.90
25112;DHT22;13092;51.996;4.458;2022-12-08T03:35:56;6.20;99.90
25112;DHT22;13092;51.996;4.458;2022-12-08T03:38:25;6.20;99.90
25112;DHT22;13092;51.996;4.458;2022-12-08T03:40:53;6.20;99.90
25112;DHT22;13092;51.996;4.458;2022-12-08T03:43:39;6.20;99.90
25112;DHT22;13092;51.996;4.458;2022-12-08T03:46:07;6.20;99.90
25112;DHT22;13092;51.996;4.458;2022-12-08T03:48:35;6.40;99.90
25112;DHT22;13092;51.996;4.458;2022-12-08T03:51:05;6.30;99.90
25112;DHT22;13092;51.996;4.458;2022-12-08T03:53:33;6.50;99.90
25112;DHT22;13092;51.996;4.458;2022-12-08T03:56:03;6.30;99.90
25112;DHT22;13092;51.996;4.458;2022-12-08T03:58:31;6.30;99.90
25112;DHT22;13092;51.996;4.458;2022-12-08T04:01:03;6.40;99.90
25112;DHT22;13092;51.996;4.458;2022-12-08T04:03:31;6.30;99.90
25112;DHT22;13092;51.996;4.458;2022-12-08T04:05:59;6.30;99.90
25112;DHT22;13092;51.996;4.458;2022-12-08T04:08:28;6.20;99.90
25112;DHT22;13092;51.996;4.458;2022-12-08T04:10:57;6.30;99.90
25112;DHT22;13092;51.996;4.458;2022-12-08T04:13:26;6.30;99.90
25112;DHT22;13092;51.996;4.458;2022-12-08T04:15:54;6.20;99.90
25112;DHT22;13092;51.996;4.458;2022-12-08T04:18:22;6.20;99.90
25112;DHT22;13092;51.996;4.458;2022-12-08T04:20:50;6.10;99.90
25112;DHT22;13092;51.996;4.458;2022-12-08T04:23:18;5.90;99.90
25112;DHT22;13092;51.996;4.458;2022-12-08T04:25:50;5.80;99.90
25112;DHT22;13092;51.996;4.458;2022-12-08T04:28:18;5.60;99.90
25112;DHT22;13092;51.996;4.458;2022-12-08T04:30:47;5.40;99.90
25112;DHT22;13092;51.996;4.458;2022-12-08T04:33:15;5.30;99.90
25112;DHT22;13092;51.996;4.458;2022-12-08T04:35:43;5.40;99.90
25112;DHT22;13092;51.996;4.458;2022-12-08T04:38:12;5.30;99.90
25112;DHT22;13092;51.996;4.458;2022-12-08T04:40:40;5.40;99.90
25112;DHT22;13092;51.996;4.458;2022-12-08T04:43:10;5.40;99.90
25112;DHT22;13092;51.996;4.458;2022-12-08T04:45:38;5.40;99.90
25112;DHT22;13092;51.996;4.458;2022-12-08T04:48:06;5.60;99.90
25112;DHT22;13092;51.996;4.458;2022-12-08T04:50:35;5.70;99.90
25112;DHT22;13092;51.996;4.458;2022-12-08T04:53:06;5.80;99.90
25112;DHT22;13092;51.996;4.458;2022-12-08T04:55:37;5.80;99.90
25112;DHT22;13092;51.996;4.458;2022-12-08T04:58:05;5.80;99.90
25112;DHT22;13092;51.996;4.458;2022-12-08T05:00:35;5.80;99.90
25112;DHT22;13092;51.996;4.458;2022-12-08T05:03:03;5.80;99.90
25112;DHT22;13092;51.996;4.458;2022-12-08T05:05:31;5.80;99.90
25112;DHT22;13092;51.996;4.458;2022-12-08T05:08:00;5.80;99.90
25112;DHT22;13092;51.996;4.458;2022-12-08T05:10:28;5.80;99.90
25112;DHT22;13092;51.996;4.458;2022-12-08T05:12:58;5.80;99.90
25112;DHT22;13092;51.996;4.458;2022-12-08T05:15:27;5.80;99.90
25112;DHT22;13092;51.996;4.458;2022-12-08T05:17:56;5.80;99.90
25112;DHT22;13092;51.996;4.458;2022-12-08T05:20:24;5.80;99.90
25112;DHT22;13092;51.996;4.458;2022-12-08T05:22:52;5.90;99.90
25112;DHT22;13092;51.996;4.458;2022-12-08T05:25:23;6.00;99.90
25112;DHT22;13092;51.996;4.458;2022-12-08T05:27:51;5.90;99.90
25112;DHT22;13092;51.996;4.458;2022-12-08T05:30:39;5.90;99.90
25112;DHT22;13092;51.996;4.458;2022-12-08T05:33:09;5.90;99.90
25112;DHT22;13092;51.996;4.458;2022-12-08T05:35:37;5.90;99.90
25112;DHT22;13092;51.996;4.458;2022-12-08T05:38:05;5.80;99.90
25112;DHT22;13092;51.996;4.458;2022-12-08T05:40:35;5.80;99.90
25112;DHT22;13092;51.996;4.458;2022-12-08T05:43:04;5.90;99.90
25112;DHT22;13092;51.996;4.458;2022-12-08T05:45:32;5.80;99.90
25112;DHT22;13092;51.996;4.458;2022-12-08T05:48:00;5.90;99.90
25112;DHT22;13092;51.996;4.458;2022-12-08T05:50:30;5.80;99.90
25112;DHT22;13092;51.996;4.458;2022-12-08T05:52:58;5.80;99.90
25112;DHT22;13092;51.996;4.458;2022-12-08T05:55:26;5.80;99.90
25112;DHT22;13092;51.996;4.458;2022-12-08T05:57:54;5.80;99.90
25112;DHT22;13092;51.996;4.458;2022-12-08T06:00:30;5.70;99.90
25112;DHT22;13092;51.996;4.458;2022-12-08T06:03:00;5.50;99.90
25112;DHT22;13092;51.996;4.458;2022-12-08T06:05:31;5.40;99.90
25112;DHT22;13092;51.996;4.458;2022-12-08T06:07:59;5.10;99.90
25112;DHT22;13092;51.996;4.458;2022-12-08T06:10:27;5.10;99.90
25112;DHT22;13092;51.996;4.458;2022-12-08T06:12:59;5.00;99.90
25112;DHT22;13092;51.996;4.458;2022-12-08T06:15:27;4.90;99.90
25112;DHT22;13092;51.996;4.458;2022-12-08T06:17:58;4.80;99.90
25112;DHT22;13092;51.996;4.458;2022-12-08T06:20:26;4.80;99.90
25112;DHT22;13092;51.996;4.458;2022-12-08T06:22:56;4.60;99.90
25112;DHT22;13092;51.996;4.458;2022-12-08T06:25:25;4.60;99.90
25112;DHT22;13092;51.996;4.458;2022-12-08T06:27:53;4.60;99.90
25112;DHT22;13092;51.996;4.458;2022-12-08T06:30:21;4.60;99.90
25112;DHT22;13092;51.996;4.458;2022-12-08T06:32:49;4.80;99.90
25112;DHT22;13092;51.996;4.458;2022-12-08T06:35:17;4.60;99.90
25112;DHT22;13092;51.996;4.458;2022-12-08T06:37:45;4.60;99.90
25112;DHT22;13092;51.996;4.458;2022-12-08T06:40:15;4.70;99.90
25112;DHT22;13092;51.996;4.458;2022-12-08T06:42:44;4.70;99.90
25112;DHT22;13092;51.996;4.458;2022-12-08T06:45:14;4.80;99.90
25112;DHT22;13092;51.996;4.458;2022-12-08T06:47:43;4.90;99.90
25112;DHT22;13092;51.996;4.458;2022-12-08T06:50:12;5.00;99.90
25112;DHT22;13092;51.996;4.458;2022-12-08T06:52:40;5.10;99.90
25112;DHT22;13092;51.996;4.458;2022-12-08T06:55:25;5.20;99.90
25112;DHT22;13092;51.996;4.458;2022-12-08T06:58:14;5.20;99.90
25112;DHT22;13092;51.996;4.458;2022-12-08T07:00:42;5.30;99.90
25112;DHT22;13092;51.996;4.458;2022-12-08T07:03:11;5.20;99.90
25112;DHT22;13092;51.996;4.458;2022-12-08T07:05:39;5.20;99.90
25112;DHT22;13092;51.996;4.458;2022-12-08T07:08:08;5.30;99.90
25112;DHT22;13092;51.996;4.458;2022-12-08T07:10:38;5.10;99.90
25112;DHT22;13092;51.996;4.458;2022-12-08T07:13:06;5.20;99.90
25112;DHT22;13092;51.996;4.458;2022-12-08T07:15:34;5.20;99.90
25112;DHT22;13092;51.996;4.458;2022-12-08T07:18:02;5.20;99.90
25112;DHT22;13092;51.996;4.458;2022-12-08T07:20:30;5.40;99.90
25112;DHT22;13092;51.996;4.458;2022-12-08T07:22:58;5.20;99.90
25112;DHT22;13092;51.996;4.458;2022-12-08T07:25:27;5.30;99.90
25112;DHT22;13092;51.996;4.458;2022-12-08T07:27:56;5.30;99.90
25112;DHT22;13092;51.996;4.458;2022-12-08T07:30:25;5.30;99.90
25112;DHT22;13092;51.996;4.458;2022-12-08T07:32:53;5.30;99.90
25112;DHT22;13092;51.996;4.458;2022-12-08T07:35:21;5.50;99.90
25112;DHT22;13092;51.996;4.458;2022-12-08T07:37:49;5.30;99.90
25112;DHT22;13092;51.996;4.458;2022-12-08T07:40:17;5.30;99.90
25112;DHT22;13092;51.996;4.458;2022-12-08T07:42:45;5.20;99.90
25112;DHT22;13092;51.996;4.458;2022-12-08T07:45:15;5.20;99.90
25112;DHT22;13092;51.996;4.458;2022-12-08T07:47:43;5.10;99.90
25112;DHT22;13092;51.996;4.458;2022-12-08T07:50:11;5.10;99.90
25112;DHT22;13092;51.996;4.458;2022-12-08T07:52:40;5.10;99.90
25112;DHT22;13092;51.996;4.458;2022-12-08T07:55:08;5.10;99.90
25112;DHT22;13092;51.996;4.458;2022-12-08T07:57:37;5.10;99.90
25112;DHT22;13092;51.996;4.458;2022-12-08T08:00:06;5.30;99.90
25112;DHT22;13092;51.996;4.458;2022-12-08T08:02:36;5.20;99.90
25112;DHT22;13092;51.996;4.458;2022-12-08T08:05:05;5.20;99.90
25112;DHT22;13092;51.996;4.458;2022-12-08T08:07:35;5.10;99.90
25112;DHT22;13092;51.996;4.458;2022-12-08T08:10:06;5.10;99.90
25112;DHT22;13092;51.996;4.458;2022-12-08T08:12:34;5.00;99.90
25112;DHT22;13092;51.996;4.458;2022-12-08T08:15:04;5.00;99.90
25112;DHT22;13092;51.996;4.458;2022-12-08T08:17:36;5.00;99.90
25112;DHT22;13092;51.996;4.458;2022-12-08T08:20:06;5.00;99.90
25112;DHT22;13092;51.996;4.458;2022-12-08T08:22:34;5.10;99.90
25112;DHT22;13092;51.996;4.458;2022-12-08T08:25:03;5.00;99.90
25112;DHT22;13092;51.996;4.458;2022-12-08T08:27:32;5.00;99.90
25112;DHT22;13092;51.996;4.458;2022-12-08T08:30:00;5.00;99.90
25112;DHT22;13092;51.996;4.458;2022-12-08T08:32:32;5.00;99.90
25112;DHT22;13092;51.996;4.458;2022-12-08T08:35:03;5.00;99.90
25112;DHT22;13092;51.996;4.458;2022-12-08T08:37:31;5.10;99.90
25112;DHT22;13092;51.996;4.458;2022-12-08T08:39:59;5.10;99.90
25112;DHT22;13092;51.996;4.458;2022-12-08T08:42:27;5.10;99.90
25112;DHT22;13092;51.996;4.458;2022-12-08T08:44:56;5.00;99.90
25112;DHT22;13092;51.996;4.458;2022-12-08T08:47:24;5.00;99.90
25112;DHT22;13092;51.996;4.458;2022-12-08T08:49:52;5.00;99.90
25112;DHT22;13092;51.996;4.458;2022-12-08T08:52:21;5.10;99.90
25112;DHT22;13092;51.996;4.458;2022-12-08T08:54:49;5.10;99.90
25112;DHT22;13092;51.996;4.458;2022-12-08T08:57:18;5.20;99.90
25112;DHT22;13092;51.996;4.458;2022-12-08T08:59:51;5.10;99.90
25112;DHT22;13092;51.996;4.458;2022-12-08T09:02:19;4.90;99.90
25112;DHT22;13092;51.996;4.458;2022-12-08T09:04:48;4.90;99.90
25112;DHT22;13092;51.996;4.458;2022-12-08T09:07:16;4.90;99.90
25112;DHT22;13092;51.996;4.458;2022-12-08T09:09:46;4.90;99.90
25112;DHT22;13092;51.996;4.458;2022-12-08T09:12:14;4.80;99.90
25112;DHT22;13092;51.996;4.458;2022-12-08T09:14:42;4.70;99.90
25112;DHT22;13092;51.996;4.458;2022-12-08T09:17:12;4.70;99.90
25112;DHT22;13092;51.996;4.458;2022-12-08T09:19:40;4.60;99.90
25112;DHT22;13092;51.996;4.458;2022-12-08T09:22:09;4.60;99.90
25112;DHT22;13092;51.996;4.458;2022-12-08T09:24:38;4.60;99.90
25112;DHT22;13092;51.996;4.458;2022-12-08T09:27:08;4.60;99.90
25112;DHT22;13092;51.996;4.458;2022-12-08T09:29:36;4.70;99.90
25112;DHT22;13092;51.996;4.458;2022-12-08T09:32:04;4.90;99.90
25112;DHT22;13092;51.996;4.458;2022-12-08T09:34:33;5.10;99.90
25112;DHT22;13092;51.996;4.458;2022-12-08T09:37:01;5.00;99.90
25112;DHT22;13092;51.996;4.458;2022-12-08T09:39:30;5.10;99.90
25112;DHT22;13092;51.996;4.458;2022-12-08T09:42:00;5.10;99.90
25112;DHT22;13092;51.996;4.458;2022-12-08T09:44:52;5.10;99.90
25112;DHT22;13092;51.996;4.458;2022-12-08T09:47:25;5.10;99.90
25112;DHT22;13092;51.996;4.458;2022-12-08T09:50:05;5.20;99.90
25112;DHT22;13092;51.996;4.458;2022-12-08T09:52:40;5.20;99.90
25112;DHT22;13092;51.996;4.458;2022-12-08T09:55:21;5.20;99.90
25112;DHT22;13092;51.996;4.458;2022-12-08T09:57:57;5.20;99.90
25112;DHT22;13092;51.996;4.458;2022-12-08T10:00:29;5.10;99.90
25112;DHT22;13092;51.996;4.458;2022-12-08T10:02:57;5.10;99.90
25112;DHT22;13092;51.996;4.458;2022-12-08T10:05:27;5.00;99.90
25112;DHT22;13092;51.996;4.458;2022-12-08T10:08:05;5.00;99.90
25112;DHT22;13092;51.996;4.458;2022-12-08T10:10:38;4.90;99.90
25112;DHT22;13092;51.996;4.458;2022-12-08T10:13:15;4.80;99.90
25112;DHT22;13092;51.996;4.458;2022-12-08T10:15:55;4.70;99.90
25112;DHT22;13092;51.996;4.458;2022-12-08T10:18:29;4.60;99.90
25112;DHT22;13092;51.996;4.458;2022-12-08T10:21:08;4.60;99.90
25112;DHT22;13092;51.996;4.458;2022-12-08T10:23:38;4.80;99.90
25112;DHT22;13092;51.996;4.458;2022-12-08T10:26:12;4.50;99.90
25112;DHT22;13092;51.996;4.458;2022-12-08T10:28:41;4.40;99.90
25112;DHT22;13092;51.996;4.458;2022-12-08T10:31:17;4.30;99.90
25112;DHT22;13092;51.996;4.458;2022-12-08T10:33:48;4.30;99.90
25112;DHT22;13092;51.996;4.458;2022-12-08T10:36:19;4.50;99.90
25112;DHT22;13092;51.996;4.458;2022-12-08T10:38:47;4.50;99.90
25112;DHT22;13092;51.996;4.458;2022-12-08T10:41:15;4.60;99.90
25112;DHT22;13092;51.996;4.458;2022-12-08T10:43:49;4.70;99.90
25112;DHT22;13092;51.996;4.458;2022-12-08T10:46:21;4.70;99.90
25112;DHT22;13092;51.996;4.458;2022-12-08T10:48:53;4.80;99.90
25112;DHT22;13092;51.996;4.458;2022-12-08T10:51:24;4.90;99.90
25112;DHT22;13092;51.996;4.458;2022-12-08T10:53:54;4.90;99.90
25112;DHT22;13092;51.996;4.458;2022-12-08T10:56:25;5.00;99.90
25112;DHT22;13092;51.996;4.458;2022-12-08T10:59:12;5.10;99.90
25112;DHT22;13092;51.996;4.458;2022-12-08T11:01:45;5.10;99.90
25112;DHT22;13092;51.996;4.458;2022-12-08T11:04:16;5.10;99.90
25112;DHT22;13092;51.996;4.458;2022-12-08T11:06:46;5.10;99.90
25112;DHT22;13092;51.996;4.458;2022-12-08T11:09:30;5.10;99.90
25112;DHT22;13092;51.996;4.458;2022-12-08T11:12:07;5.20;99.90
25112;DHT22;13092;51.996;4.458;2022-12-08T11:14:47;5.30;99.90
25112;DHT22;13092;51.996;4.458;2022-12-08T11:17:24;5.30;99.90
25112;DHT22;13092;51.996;4.458;2022-12-08T11:19:58;5.30;99.90
25112;DHT22;13092;51.996;4.458;2022-12-08T11:22:30;5.40;99.90
25112;DHT22;13092;51.996;4.458;2022-12-08T11:25:02;5.50;99.90
25112;DHT22;13092;51.996;4.458;2022-12-08T11:27:32;5.50;99.90
25112;DHT22;13092;51.996;4.458;2022-12-08T11:30:05;5.50;99.90
25112;DHT22;13092;51.996;4.458;2022-12-08T11:32:44;5.60;99.90
25112;DHT22;13092;51.996;4.458;2022-12-08T11:35:19;5.80;99.90
25112;DHT22;13092;51.996;4.458;2022-12-08T11:37:56;5.70;99.90
25112;DHT22;13092;51.996;4.458;2022-12-08T11:40:44;5.60;99.90
25112;DHT22;13092;51.996;4.458;2022-12-08T11:43:16;5.50;99.90
25112;DHT22;13092;51.996;4.458;2022-12-08T11:45:49;5.20;99.90
25112;DHT22;13092;51.996;4.458;2022-12-08T11:48:26;5.10;99.90
25112;DHT22;13092;51.996;4.458;2022-12-08T11:50:59;4.90;99.90
25112;DHT22;13092;51.996;4.458;2022-12-08T11:53:34;4.70;99.90
25112;DHT22;13092;51.996;4.458;2022-12-08T11:56:07;4.50;99.90
25112;DHT22;13092;51.996;4.458;2022-12-08T11:58:40;4.40;99.90
25112;DHT22;13092;51.996;4.458;2022-12-08T12:01:16;4.40;99.90
25112;DHT22;13092;51.996;4.458;2022-12-08T12:03:54;4.30;99.90
25112;DHT22;13092;51.996;4.458;2022-12-08T12:06:43;4.40;99.90
25112;DHT22;13092;51.996;4.458;2022-12-08T12:09:30;4.50;99.90
25112;DHT22;13092;51.996;4.458;2022-12-08T12:12:07;4.60;99.90
25112;DHT22;13092;51.996;4.458;2022-12-08T12:17:44;4.80;99.90
25112;DHT22;13092;51.996;4.458;2022-12-08T12:20:20;4.70;99.90
25112;DHT22;13092;51.996;4.458;2022-12-08T12:22:54;4.70;99.90
25112;DHT22;13092;51.996;4.458;2022-12-08T12:25:25;4.70;99.90
25112;DHT22;13092;51.996;4.458;2022-12-08T12:27:58;4.70;99.90
25112;DHT22;13092;51.996;4.458;2022-12-08T12:30:48;4.70;99.90
25112;DHT22;13092;51.996;4.458;2022-12-08T12:33:17;4.70;99.90
25112;DHT22;13092;51.996;4.458;2022-12-08T12:35:48;4.70;99.90
25112;DHT22;13092;51.996;4.458;2022-12-08T12:38:23;4.70;99.90
25112;DHT22;13092;51.996;4.458;2022-12-08T12:41:12;4.70;99.90
25112;DHT22;13092;51.996;4.458;2022-12-08T12:44:07;4.70;99.90
25112;DHT22;13092;51.996;4.458;2022-12-08T12:46:39;4.70;99.90
25112;DHT22;13092;51.996;4.458;2022-12-08T12:52:38;4.80;99.90
25112;DHT22;13092;51.996;4.458;2022-12-08T12:55:28;4.90;99.90
25112;DHT22;13092;51.996;4.458;2022-12-08T12:57:57;5.10;99.90
25112;DHT22;13092;51.996;4.458;2022-12-08T13:00:26;5.20;99.90
25112;DHT22;13092;51.996;4.458;2022-12-08T13:02:56;5.30;99.90
25112;DHT22;13092;51.996;4.458;2022-12-08T13:05:25;5.40;99.90
25112;DHT22;13092;51.996;4.458;2022-12-08T13:07:57;5.30;99.90
25112;DHT22;13092;51.996;4.458;2022-12-08T13:10:28;5.40;99.90
25112;DHT22;13092;51.996;4.458;2022-12-08T13:13:04;5.50;99.90
25112;DHT22;13092;51.996;4.458;2022-12-08T13:15:35;5.50;99.90
25112;DHT22;13092;51.996;4.458;2022-12-08T13:18:04;5.50;99.90
25112;DHT22;13092;51.996;4.458;2022-12-08T13:20:41;5.50;99.90
25112;DHT22;13092;51.996;4.458;2022-12-08T13:26:12;5.70;99.90
25112;DHT22;13092;51.996;4.458;2022-12-08T13:29:04;5.70;99.90
25112;DHT22;13092;51.996;4.458;2022-12-08T13:31:38;5.70;99.90
25112;DHT22;13092;51.996;4.458;2022-12-08T13:34:19;5.70;99.90
25112;DHT22;13092;51.996;4.458;2022-12-08T13:37:01;5.60;99.90
25112;DHT22;13092;51.996;4.458;2022-12-08T13:39:39;5.70;99.90
25112;DHT22;13092;51.996;4.458;2022-12-08T13:42:16;5.60;99.90
25112;DHT22;13092;51.996;4.458;2022-12-08T13:44:49;5.60;99.90
25112;DHT22;13092;51.996;4.458;2022-12-08T13:47:43;5.60;99.90
25112;DHT22;13092;51.996;4.458;2022-12-08T13:50:34;5.60;99.90
25112;DHT22;13092;51.996;4.458;2022-12-08T13:53:28;5.50;99.90
25112;DHT22;13092;51.996;4.458;2022-12-08T13:56:19;5.50;99.90
25112;DHT22;13092;51.996;4.458;2022-12-08T13:59:23;5.30;99.90
25112;DHT22;13092;51.996;4.458;2022-12-08T14:01:55;5.50;99.90
25112;DHT22;13092;51.996;4.458;2022-12-08T14:04:24;5.50;99.90
25112;DHT22;13092;51.996;4.458;2022-12-08T14:07:13;5.40;99.90
25112;DHT22;13092;51.996;4.458;2022-12-08T14:09:42;5.50;99.90
25112;DHT22;13092;51.996;4.458;2022-12-08T14:12:17;5.40;99.90
25112;DHT22;13092;51.996;4.458;2022-12-08T14:14:47;5.40;99.90
25112;DHT22;13092;51.996;4.458;2022-12-08T14:17:32;5.50;99.90
25112;DHT22;13092;51.996;4.458;2022-12-08T14:20:03;5.30;99.90
25112;DHT22;13092;51.996;4.458;2022-12-08T14:22:33;5.20;99.90
25112;DHT22;13092;51.996;4.458;2022-12-08T14:25:02;5.40;99.90
25112;DHT22;13092;51.996;4.458;2022-12-08T14:27:35;5.20;99.90
25112;DHT22;13092;51.996;4.458;2022-12-08T14:30:06;5.10;99.90
25112;DHT22;13092;51.996;4.458;2022-12-08T14:32:38;5.10;99.90
25112;DHT22;13092;51.996;4.458;2022-12-08T14:35:24;5.10;99.90
25112;DHT22;13092;51.996;4.458;2022-12-08T14:37:55;4.90;99.90
25112;DHT22;13092;51.996;4.458;2022-12-08T14:40:29;5.10;99.90
25112;DHT22;13092;51.996;4.458;2022-12-08T14:43:13;5.10;99.90
25112;DHT22;13092;51.996;4.458;2022-12-08T14:45:47;4.90;99.90
25112;DHT22;13092;51.996;4.458;2022-12-08T14:48:20;4.90;99.90
25112;DHT22;13092;51.996;4.458;2022-12-08T14:50:58;4.90;99.90
25112;DHT22;13092;51.996;4.458;2022-12-08T14:53:34;4.90;99.90
25112;DHT22;13092;51.996;4.458;2022-12-08T14:56:07;4.90;99.90
25112;DHT22;13092;51.996;4.458;2022-12-08T14:58:37;4.80;99.90
25112;DHT22;13092;51.996;4.458;2022-12-08T15:01:06;4.70;99.90
25112;DHT22;13092;51.996;4.458;2022-12-08T15:03:36;4.70;99.90
25112;DHT22;13092;51.996;4.458;2022-12-08T15:06:05;4.70;99.90
25112;DHT22;13092;51.996;4.458;2022-12-08T15:08:51;4.60;99.90
25112;DHT22;13092;51.996;4.458;2022-12-08T15:11:31;4.80;99.90
25112;DHT22;13092;51.996;4.458;2022-12-08T15:14:01;4.60;99.90
25112;DHT22;13092;51.996;4.458;2022-12-08T15:16:36;4.60;99.90
25112;DHT22;13092;51.996;4.458;2022-12-08T15:19:15;4.70;99.90
25112;DHT22;13092;51.996;4.458;2022-12-08T15:21:45;4.80;99.90
25112;DHT22;13092;51.996;4.458;2022-12-08T15:24:14;4.80;99.90
25112;DHT22;13092;51.996;4.458;2022-12-08T15:26:44;4.90;99.90
25112;DHT22;13092;51.996;4.458;2022-12-08T15:29:19;4.70;99.90
25112;DHT22;13092;51.996;4.458;2022-12-08T15:31:48;4.70;99.90
25112;DHT22;13092;51.996;4.458;2022-12-08T15:34:18;4.70;99.90
25112;DHT22;13092;51.996;4.458;2022-12-08T15:36:46;4.60;99.90
25112;DHT22;13092;51.996;4.458;2022-12-08T15:39:29;4.60;99.90
25112;DHT22;13092;51.996;4.458;2022-12-08T15:41:59;4.60;99.90
25112;DHT22;13092;51.996;4.458;2022-12-08T15:44:29;4.50;99.90
25112;DHT22;13092;51.996;4.458;2022-12-08T15:46:59;4.50;99.90
25112;DHT22;13092;51.996;4.458;2022-12-08T15:49:27;4.50;99.90
25112;DHT22;13092;51.996;4.458;2022-12-08T15:51:56;4.50;99.90
25112;DHT22;13092;51.996;4.458;2022-12-08T15:54:37;4.40;99.90
25112;DHT22;13092;51.996;4.458;2022-12-08T15:57:07;4.40;99.90
25112;DHT22;13092;51.996;4.458;2022-12-08T16:00:04;4.40;99.90
25112;DHT22;13092;51.996;4.458;2022-12-08T16:02:52;4.40;99.90
25112;DHT22;13092;51.996;4.458;2022-12-08T16:05:40;4.50;99.90
25112;DHT22;13092;51.996;4.458;2022-12-08T16:08:29;4.40;99.90
25112;DHT22;13092;51.996;4.458;2022-12-08T16:11:17;4.40;99.90
25112;DHT22;13092;51.996;4.458;2022-12-08T16:14:23;4.20;99.90
25112;DHT22;13092;51.996;4.458;2022-12-08T16:17:14;4.30;99.90
25112;DHT22;13092;51.996;4.458;2022-12-08T16:19:43;4.40;99.90
25112;DHT22;13092;51.996;4.458;2022-12-08T16:22:15;4.40;99.90
25112;DHT22;13092;51.996;4.458;2022-12-08T16:25:04;4.30;99.90
25112;DHT22;13092;51.996;4.458;2022-12-08T16:27:50;4.30;99.90
25112;DHT22;13092;51.996;4.458;2022-12-08T16:30:38;4.20;99.90
25112;DHT22;13092;51.996;4.458;2022-12-08T16:33:08;4.20;99.90